Time;durP1;ratioP1;P1;durP2;ratioP2;P2;SDS_P1;SDS_P2;PMS_P1;PMS_P2;Temp;Humidity;BMP_temperature;BMP_pressure;BME280_temperature;BME280_humidity;BME280_pressure;Samples;Min_cycle;Max_cycle;Signal;HPM_P1;HPM_P2
2023/07/12 00:00:23;;;;;;;3.40;1.63;;;23.10;77.10;;;;;;5092624;28;20039;-75
2023/07/12 00:02:49;;;;;;;1.95;1.40;;;23.00;76.90;;;;;;5093499;28;20050;-75
2023/07/12 00:05:16;;;;;;;2.80;1.40;;;22.90;77.00;;;;;;5092557;28;20052;-74
2023/07/12 00:07:45;;;;;;;3.58;1.23;;;22.70;77.30;;;;;;5093462;28;20108;-74
2023/07/12 00:10:16;;;;;;;3.40;1.65;;;22.50;78.00;;;;;;5092521;28;20380;-75
2023/07/12 00:12:41;;;;;;;2.70;1.45;;;22.60;78.40;;;;;;5093459;28;20023;-75
2023/07/12 00:15:11;;;;;;;2.05;1.42;;;22.60;78.10;;;;;;5075685;28;20028;-75
2023/07/12 00:17:37;;;;;;;6.13;1.67;;;22.60;78.30;;;;;;5093359;28;20024;-75
2023/07/12 00:20:03;;;;;;;3.00;1.67;;;22.60;78.60;;;;;;5092396;28;20039;-75
2023/07/12 00:22:29;;;;;;;4.55;2.58;;;22.70;78.60;;;;;;5075716;28;20096;-75
2023/07/12 00:24:55;;;;;;;4.00;1.63;;;22.70;79.30;;;;;;5092211;28;20029;-75
2023/07/12 00:27:20;;;;;;;3.63;1.55;;;22.70;78.40;;;;;;5092220;28;20032;-75
2023/07/12 00:29:46;;;;;;;3.75;1.80;;;22.70;78.40;;;;;;5092471;28;20066;-75
2023/07/12 00:32:11;;;;;;;2.88;1.70;;;22.60;78.50;;;;;;5092163;28;20058;-74
2023/07/12 00:34:37;;;;;;;4.18;1.90;;;22.60;78.80;;;;;;5093117;28;20029;-75
2023/07/12 00:37:03;;;;;;;3.97;1.92;;;22.60;79.00;;;;;;5093266;28;20384;-75
2023/07/12 00:39:28;;;;;;;4.60;2.65;;;22.50;79.10;;;;;;5075385;28;20024;-75
2023/07/12 00:42:09;;;;;;;3.53;1.92;;;22.40;80.30;;;;;;5075233;28;20053;-75
2023/07/12 00:44:50;;;;;;;4.43;2.38;;;22.30;80.00;;;;;;5092090;28;20025;-75
2023/07/12 00:47:19;;;;;;;4.10;1.88;;;22.30;80.40;;;;;;5092087;28;20020;-75
2023/07/12 00:49:45;;;;;;;4.53;2.15;;;22.20;81.00;;;;;;5092000;28;20013;-75
2023/07/12 00:52:16;;;;;;;3.10;2.08;;;22.00;81.20;;;;;;5096048;28;20426;-75
2023/07/12 00:54:50;;;;;;;3.95;2.30;;;21.90;82.10;;;;;;5096084;28;20032;-74
2023/07/12 00:57:16;;;;;;;3.58;2.22;;;21.90;82.20;;;;;;5096010;28;20024;-74
2023/07/12 00:59:42;;;;;;;6.20;2.15;;;21.80;82.40;;;;;;5079243;28;20111;-74
2023/07/12 01:02:08;;;;;;;4.38;2.10;;;21.80;82.00;;;;;;5079171;28;20032;-75
2023/07/12 01:04:42;;;;;;;3.78;2.30;;;21.80;82.20;;;;;;5095811;28;20048;-74
2023/07/12 01:07:08;;;;;;;4.50;2.13;;;21.80;82.10;;;;;;5096819;28;20061;-74
2023/07/12 01:09:33;;;;;;;4.30;2.20;;;21.70;81.90;;;;;;5095963;28;20092;-75
2023/07/12 01:12:00;;;;;;;4.13;2.40;;;21.80;81.80;;;;;;5095638;28;20028;-74
2023/07/12 01:14:27;;;;;;;6.13;2.25;;;21.80;81.70;;;;;;5095686;28;20093;-74
2023/07/12 01:17:01;;;;;;;2.80;1.83;;;21.70;81.40;;;;;;5096599;28;20028;-74
2023/07/12 01:19:28;;;;;;;5.68;2.20;;;21.60;81.10;;;;;;5096510;28;20039;-74
2023/07/12 01:21:55;;;;;;;4.22;2.05;;;21.60;80.70;;;;;;5078900;28;20028;-74
2023/07/12 01:24:22;;;;;;;3.95;1.75;;;21.60;79.60;;;;;;5095341;28;20040;-74
2023/07/12 01:26:51;;;;;;;2.42;1.40;;;21.50;79.20;;;;;;5095369;28;20013;-75
2023/07/12 01:29:17;;;;;;;3.13;1.42;;;21.50;79.10;;;;;;5096380;28;20017;-74
2023/07/12 01:31:44;;;;;;;4.43;1.80;;;21.50;78.50;;;;;;5095350;28;20025;-73
2023/07/12 01:34:10;;;;;;;4.38;1.60;;;21.40;78.30;;;;;;5095313;28;20075;-74
2023/07/12 01:36:36;;;;;;;4.00;1.70;;;21.40;78.00;;;;;;5095299;28;20044;-74
2023/07/12 01:39:04;;;;;;;3.03;1.35;;;21.40;78.10;;;;;;5078609;28;20030;-74
2023/07/12 01:41:30;;;;;;;4.72;1.73;;;21.50;77.80;;;;;;5095961;28;20048;-75
2023/07/12 01:43:57;;;;;;;5.97;1.50;;;21.50;77.60;;;;;;5095054;28;20392;-74
2023/07/12 01:46:23;;;;;;;6.13;1.80;;;21.50;77.60;;;;;;5095033;28;20063;-74
2023/07/12 01:48:49;;;;;;;3.45;1.70;;;21.50;77.10;;;;;;5095002;28;20096;-74
2023/07/12 01:51:16;;;;;;;3.88;1.63;;;21.50;77.20;;;;;;5095053;28;20012;-75
2023/07/12 01:53:42;;;;;;;8.65;1.70;;;21.50;77.60;;;;;;5095024;28;20184;-74
2023/07/12 01:56:08;;;;;;;4.20;1.48;;;21.50;77.60;;;;;;5094908;28;20040;-74
2023/07/12 01:58:34;;;;;;;3.75;1.75;;;21.40;77.50;;;;;;5095830;28;20029;-74
2023/07/12 02:01:00;;;;;;;5.65;1.58;;;21.50;77.80;;;;;;5094232;28;20123;-74
2023/07/12 02:03:26;;;;;;;5.22;1.75;;;21.40;78.00;;;;;;5094808;28;20029;-74
2023/07/12 02:05:52;;;;;;;7.07;1.90;;;21.50;78.10;;;;;;5095694;28;20054;-74
2023/07/12 02:08:18;;;;;;;4.07;1.67;;;21.40;78.00;;;;;;5077993;28;20032;-74
2023/07/12 02:10:43;;;;;;;4.53;1.75;;;21.40;78.20;;;;;;5077964;28;20029;-74
2023/07/12 02:13:10;;;;;;;4.28;1.70;;;21.40;78.30;;;;;;5094603;28;20092;-74
2023/07/12 02:15:36;;;;;;;4.53;1.98;;;21.40;78.10;;;;;;5077939;28;20034;-74
2023/07/12 02:18:03;;;;;;;4.80;1.92;;;21.20;78.30;;;;;;5094474;28;20048;-74
2023/07/12 02:20:29;;;;;;;5.28;1.70;;;21.00;79.20;;;;;;5094458;28;20021;-74
2023/07/12 02:22:55;;;;;;;4.72;1.77;;;21.00;79.80;;;;;;5077784;28;20029;-74
2023/07/12 02:25:21;;;;;;;7.00;1.88;;;20.80;80.30;;;;;;5095277;28;20391;-74
2023/07/12 02:27:47;;;;;;;3.67;1.73;;;20.70;80.90;;;;;;5094360;28;20031;-74
2023/07/12 02:30:20;;;;;;;7.22;2.10;;;20.60;81.20;;;;;;5094238;28;20032;-74
2023/07/12 02:32:46;;;;;;;4.68;1.90;;;20.60;81.80;;;;;;5095170;28;20024;-73
2023/07/12 02:35:13;;;;;;;6.78;2.40;;;20.50;81.80;;;;;;5095119;28;20029;-73
2023/07/12 02:37:39;;;;;;;4.28;1.98;;;20.50;82.10;;;;;;5095208;28;20024;-73
2023/07/12 02:40:06;;;;;;;5.35;2.05;;;20.50;82.30;;;;;;5095037;28;20043;-73
2023/07/12 02:42:32;;;;;;;5.35;1.92;;;20.40;82.50;;;;;;5093943;28;20131;-73
2023/07/12 02:44:58;;;;;;;7.30;2.00;;;20.40;82.60;;;;;;5094850;28;20075;-73
2023/07/12 02:47:24;;;;;;;6.80;2.03;;;20.40;83.00;;;;;;5077187;28;20025;-73
2023/07/12 02:49:49;;;;;;;7.03;2.30;;;20.40;83.10;;;;;;5093900;28;20013;-73
2023/07/12 02:52:15;;;;;;;5.00;2.28;;;20.40;83.40;;;;;;5093894;28;20071;-73
2023/07/12 02:54:41;;;;;;;6.32;2.38;;;20.40;83.10;;;;;;5093943;28;20045;-74
2023/07/12 02:57:10;;;;;;;3.80;2.17;;;20.40;83.30;;;;;;5094674;28;20028;-73
2023/07/12 02:59:35;;;;;;;4.35;1.95;;;20.40;83.10;;;;;;5093669;28;20020;-73
2023/07/12 03:02:02;;;;;;;6.15;2.42;;;20.30;83.10;;;;;;5093520;28;20035;-73
2023/07/12 03:04:27;;;;;;;4.80;2.35;;;20.20;83.40;;;;;;5093566;28;20040;-74
2023/07/12 03:06:53;;;;;;;5.75;2.50;;;20.10;84.00;;;;;;5076878;28;20036;-73
2023/07/12 03:09:19;;;;;;;6.60;2.67;;;20.10;84.50;;;;;;5076717;28;20032;-73
2023/07/12 03:11:46;;;;;;;5.03;2.45;;;20.00;84.90;;;;;;5076678;28;20122;-74
2023/07/12 03:14:13;;;;;;;5.75;2.15;;;20.00;85.00;;;;;;5093501;28;20024;-73
2023/07/12 03:16:39;;;;;;;5.38;2.78;;;19.90;85.40;;;;;;5093349;28;20052;-73
2023/07/12 03:19:04;;;;;;;6.38;2.20;;;19.90;85.50;;;;;;5093209;28;20036;-74
2023/07/12 03:21:30;;;;;;;5.72;2.33;;;19.90;85.70;;;;;;5094359;28;20040;-74
2023/07/12 03:23:55;;;;;;;4.65;2.65;;;20.00;85.60;;;;;;5094067;28;20044;-73
2023/07/12 03:26:21;;;;;;;10.27;3.03;;;20.00;85.50;;;;;;5093166;28;20023;-73
2023/07/12 03:28:46;;;;;;;5.45;2.70;;;19.90;85.80;;;;;;5093061;28;20036;-74
2023/07/12 03:31:17;;;;;;;4.28;2.33;;;19.90;85.80;;;;;;5093087;28;20032;-73
2023/07/12 03:33:47;;;;;;;8.27;3.05;;;19.80;86.20;;;;;;5092897;28;20032;-73
2023/07/12 03:36:13;;;;;;;7.15;2.60;;;19.80;86.40;;;;;;5092976;28;20066;-73
2023/07/12 03:38:39;;;;;;;6.53;2.60;;;19.80;87.10;;;;;;5092845;28;20025;-74
2023/07/12 03:41:09;;;;;;;4.95;2.25;;;19.70;87.20;;;;;;5092628;28;20049;-74
2023/07/12 03:43:35;;;;;;;5.00;2.38;;;19.60;87.00;;;;;;5093727;28;20020;-74
2023/07/12 03:46:01;;;;;;;6.22;2.60;;;19.70;87.20;;;;;;5076049;28;20028;-74
2023/07/12 03:48:27;;;;;;;4.80;2.40;;;19.60;87.40;;;;;;5092787;28;20031;-73
2023/07/12 03:50:55;;;;;;;5.80;2.40;;;19.70;87.40;;;;;;5093662;28;20050;-73
2023/07/12 03:53:22;;;;;;;5.10;2.22;;;19.60;87.40;;;;;;5092639;28;20013;-74
2023/07/12 03:55:47;;;;;;;4.32;2.60;;;19.50;88.80;;;;;;5075961;28;20066;-73
2023/07/12 03:58:19;;;;;;;5.72;2.63;;;19.40;88.20;;;;;;5093588;28;20028;-74
2023/07/12 04:00:48;;;;;;;5.15;2.45;;;19.50;88.30;;;;;;5093640;28;20049;-74
2023/07/12 04:03:14;;;;;;;3.70;2.40;;;19.40;88.40;;;;;;5093526;28;20020;-73
2023/07/12 04:05:41;;;;;;;5.85;1.98;;;19.40;88.20;;;;;;5092529;28;20028;-74
2023/07/12 04:08:09;;;;;;;4.90;2.38;;;19.50;88.20;;;;;;5093468;28;20025;-73
2023/07/12 04:10:35;;;;;;;4.75;2.10;;;19.50;88.20;;;;;;5092389;28;20019;-74
2023/07/12 04:13:02;;;;;;;4.75;2.50;;;19.50;88.50;;;;;;5092583;28;20028;-73
2023/07/12 04:15:27;;;;;;;6.57;2.30;;;19.50;88.60;;;;;;5093399;28;20024;-73
2023/07/12 04:17:53;;;;;;;5.47;2.38;;;19.50;88.60;;;;;;5092478;28;20055;-74
2023/07/12 04:20:19;;;;;;;3.58;2.17;;;19.40;89.00;;;;;;5075694;28;20082;-74
2023/07/12 04:22:48;;;;;;;4.65;2.40;;;19.40;89.00;;;;;;5075661;28;20033;-74
2023/07/12 04:25:14;;;;;;;4.95;3.15;;;19.40;89.00;;;;;;5092989;28;20046;-74
2023/07/12 04:27:40;;;;;;;7.95;4.15;;;19.30;89.00;;;;;;5093239;28;20024;-74
2023/07/12 04:30:10;;;;;;;8.77;4.13;;;19.20;88.60;;;;;;5092279;28;20051;-73
2023/07/12 04:32:36;;;;;;;9.45;4.70;;;19.10;89.20;;;;;;5092190;28;20033;-74
2023/07/12 04:35:02;;;;;;;8.65;4.65;;;19.00;89.30;;;;;;5093114;28;20035;-73
2023/07/12 04:37:28;;;;;;;10.80;4.97;;;19.00;89.30;;;;;;5092147;28;20025;-73
2023/07/12 04:39:53;;;;;;;8.05;4.38;;;19.10;90.00;;;;;;5075373;28;20047;-74
2023/07/12 04:42:20;;;;;;;9.98;4.57;;;19.00;89.90;;;;;;5091984;28;20069;-74
2023/07/12 04:44:45;;;;;;;7.32;4.43;;;19.00;89.40;;;;;;5092991;28;20025;-74
2023/07/12 04:47:11;;;;;;;8.10;4.10;;;19.00;89.30;;;;;;5092178;28;20023;-74
2023/07/12 04:49:37;;;;;;;10.50;4.28;;;19.10;89.10;;;;;;5091997;28;20078;-74
2023/07/12 04:52:04;;;;;;;10.18;4.45;;;19.00;89.10;;;;;;5093062;28;20040;-74
2023/07/12 04:54:32;;;;;;;8.80;4.80;;;19.00;89.20;;;;;;5092250;28;20084;-74
2023/07/12 04:56:58;;;;;;;8.52;4.43;;;18.90;89.50;;;;;;5075647;28;20055;-73
2023/07/12 04:59:24;;;;;;;7.65;4.00;;;18.90;89.70;;;;;;5093088;28;20480;-74
2023/07/12 05:01:49;;;;;;;6.85;3.90;;;19.00;89.60;;;;;;5092019;28;20032;-74
2023/07/12 05:04:15;;;;;;;13.05;4.82;;;19.00;89.60;;;;;;5075138;28;20036;-74
2023/07/12 05:06:41;;;;;;;8.07;4.40;;;19.00;89.70;;;;;;5091878;28;20037;-74
2023/07/12 05:09:06;;;;;;;8.65;4.28;;;18.90;89.60;;;;;;5091834;28;20023;-71
2023/07/12 05:11:32;;;;;;;6.10;3.80;;;18.90;89.20;;;;;;5092969;28;20035;-70
2023/07/12 05:13:57;;;;;;;9.23;4.05;;;18.90;89.50;;;;;;5092793;28;20036;-70
2023/07/12 05:16:23;;;;;;;6.53;4.03;;;18.90;89.40;;;;;;5092775;28;20035;-70
2023/07/12 05:18:49;;;;;;;8.75;3.95;;;18.90;89.60;;;;;;5092736;28;20032;-70
2023/07/12 05:21:15;;;;;;;10.07;5.13;;;18.80;89.40;;;;;;5092886;28;20052;-70
2023/07/12 05:23:41;;;;;;;6.40;3.58;;;18.80;89.30;;;;;;5092657;28;20033;-70
2023/07/12 05:26:08;;;;;;;8.85;4.10;;;18.90;89.80;;;;;;5092712;28;20027;-70
2023/07/12 05:28:34;;;;;;;8.50;4.10;;;18.90;89.90;;;;;;5092667;28;20027;-70
2023/07/12 05:31:06;;;;;;;8.48;4.35;;;18.90;89.90;;;;;;5092637;28;20029;-74
2023/07/12 05:33:31;;;;;;;7.97;3.60;;;19.00;89.50;;;;;;5092605;28;20080;-74
2023/07/12 05:35:57;;;;;;;7.80;3.67;;;18.90;89.80;;;;;;5091936;28;20036;-74
2023/07/12 05:38:23;;;;;;;5.82;3.40;;;19.00;89.90;;;;;;5096187;28;20024;-74
2023/07/12 05:40:49;;;;;;;6.05;3.45;;;19.00;89.60;;;;;;5095915;28;20021;-74
2023/07/12 05:43:22;;;;;;;6.32;3.25;;;18.90;89.90;;;;;;5078432;28;20029;-73
2023/07/12 05:45:47;;;;;;;8.77;3.22;;;19.00;90.10;;;;;;5095240;28;20038;-73
2023/07/12 05:48:13;;;;;;;8.60;3.67;;;19.00;89.80;;;;;;5094985;28;20033;-77
2023/07/12 05:50:38;;;;;;;6.97;3.10;;;19.00;89.80;;;;;;5095111;28;20021;-77
2023/07/12 05:53:04;;;;;;;6.82;3.13;;;19.00;89.60;;;;;;5095069;28;20024;-73
2023/07/12 05:55:31;;;;;;;8.75;3.25;;;19.00;89.10;;;;;;5096052;28;20028;-75
2023/07/12 05:57:57;;;;;;;5.18;2.97;;;19.00;89.00;;;;;;5095027;28;20020;-75
2023/07/12 06:00:23;;;;;;;6.97;3.17;;;19.00;89.10;;;;;;5095087;28;20035;-74
2023/07/12 06:02:49;;;;;;;4.55;2.72;;;19.00;88.90;;;;;;5095768;28;20043;-76
2023/07/12 06:05:14;;;;;;;9.27;3.40;;;19.00;88.90;;;;;;5077947;28;20030;-76
2023/07/12 06:07:41;;;;;;;7.63;3.88;;;19.00;89.00;;;;;;5095647;28;20028;-76
2023/07/12 06:10:08;;;;;;;4.35;2.92;;;19.10;89.50;;;;;;5095724;28;20025;-75
2023/07/12 06:12:33;;;;;;;4.35;2.92;;;19.10;89.10;;;;;;5094676;28;20025;-75
2023/07/12 06:14:59;;;;;;;5.70;3.08;;;19.10;89.40;;;;;;5094504;28;20123;-77
2023/07/12 06:17:25;;;;;;;7.13;3.40;;;19.20;89.10;;;;;;5095635;28;20036;-76
2023/07/12 06:19:50;;;;;;;6.15;3.17;;;19.20;89.40;;;;;;5094444;28;20035;-77
2023/07/12 06:22:16;;;;;;;6.07;3.08;;;19.30;88.50;;;;;;5094631;28;20059;-75
2023/07/12 06:24:41;;;;;;;7.03;3.15;;;19.20;88.30;;;;;;5077570;28;20032;-75
2023/07/12 06:27:07;;;;;;;8.13;3.92;;;19.20;87.60;;;;;;5077588;28;20032;-75
2023/07/12 06:29:33;;;;;;;6.63;2.95;;;19.20;87.90;;;;;;5095278;28;20048;-75
2023/07/12 06:31:59;;;;;;;7.55;3.58;;;19.10;88.00;;;;;;5095126;28;20020;-75
2023/07/12 06:34:25;;;;;;;4.97;2.83;;;19.10;89.00;;;;;;5095018;28;20016;-75
2023/07/12 06:36:50;;;;;;;7.35;3.03;;;19.20;88.90;;;;;;5095062;28;20088;-74
2023/07/12 06:39:16;;;;;;;11.93;4.10;;;19.10;89.50;;;;;;5094168;28;20028;-74
2023/07/12 06:41:42;;;;;;;6.40;3.70;;;19.20;89.00;;;;;;5094822;28;20534;-75
2023/07/12 06:44:09;;;;;;;6.25;3.08;;;19.20;88.80;;;;;;5093898;28;20439;-76
2023/07/12 06:46:34;;;;;;;6.53;3.00;;;19.30;88.80;;;;;;5094910;28;20025;-76
2023/07/12 06:49:00;;;;;;;7.72;3.03;;;19.40;87.30;;;;;;5094779;28;20028;-76
2023/07/12 06:51:51;;;;;;;7.20;3.03;;;19.30;87.50;;;;;;5110925;28;20036;-77
2023/07/12 06:54:32;;;;;;;6.57;3.00;;;19.40;87.80;;;;;;5093709;28;20059;-77
2023/07/12 06:57:08;;;;;;;9.77;3.10;;;19.30;87.40;;;;;;5095236;28;20016;-75
2023/07/12 07:02:26;;;;;;;5.90;3.35;;;19.40;88.00;;;;;;5053967;28;20039;-77
2023/07/12 07:04:52;;;;;;;7.05;3.67;;;19.20;87.20;;;;;;5094538;28;20032;-76
2023/07/12 07:07:18;;;;;;;6.75;3.30;;;19.30;87.30;;;;;;5093390;28;20050;-76
2023/07/12 07:09:43;;;;;;;7.30;2.97;;;19.30;87.30;;;;;;5094504;28;20084;-76
2023/07/12 07:12:09;;;;;;;10.75;3.50;;;19.30;87.00;;;;;;5076767;28;20036;-76
2023/07/12 07:14:35;;;;;;;6.63;3.90;;;19.20;87.60;;;;;;5093377;28;20025;-76
2023/07/12 07:17:00;;;;;;;7.93;3.53;;;19.20;87.50;;;;;;5094283;28;20036;-77
2023/07/12 07:19:26;;;;;;;10.13;3.72;;;19.20;87.50;;;;;;5093283;28;20028;-76
2023/07/12 07:21:52;;;;;;;6.95;3.33;;;19.20;87.90;;;;;;5093159;28;20025;-79
2023/07/12 07:24:18;;;;;;;14.13;4.07;;;19.20;88.00;;;;;;5076380;28;20028;-77
2023/07/12 07:26:44;;;;;;;9.68;3.50;;;19.20;88.30;;;;;;5093306;28;20036;-78
2023/07/12 07:29:10;;;;;;;12.18;3.95;;;19.30;88.10;;;;;;5092940;28;20021;-77
2023/07/12 07:31:35;;;;;;;7.70;3.85;;;19.30;87.90;;;;;;5093010;28;20021;-77
2023/07/12 07:34:01;;;;;;;6.20;3.20;;;19.30;87.30;;;;;;5092871;28;20033;-78
2023/07/12 07:36:27;;;;;;;6.32;3.38;;;19.30;87.40;;;;;;5092889;28;20028;-77
2023/07/12 07:38:53;;;;;;;7.53;3.63;;;19.30;87.30;;;;;;5092882;28;20058;-77
2023/07/12 07:41:18;;;;;;;10.93;4.10;;;19.30;87.50;;;;;;5092726;28;20048;-77
2023/07/12 07:43:44;;;;;;;9.43;3.97;;;19.30;88.20;;;;;;5093756;28;20043;-78
2023/07/12 07:46:14;;;;;;;6.88;3.70;;;19.20;87.30;;;;;;5076184;28;20028;-77
2023/07/12 07:48:40;;;;;;;8.25;3.67;;;19.30;88.10;;;;;;5092772;28;20031;-78
2023/07/12 07:51:08;;;;;;;6.22;3.40;;;19.40;88.20;;;;;;5076284;28;20025;-78
2023/07/12 07:53:33;;;;;;;6.00;3.10;;;19.50;88.20;;;;;;5093840;28;20025;-78
2023/07/12 07:55:59;;;;;;;8.10;3.53;;;19.50;87.40;;;;;;5092831;28;20051;-77
2023/07/12 07:58:25;;;;;;;5.93;3.17;;;19.50;87.20;;;;;;5092851;28;20025;-77
2023/07/12 08:00:51;;;;;;;8.40;3.70;;;19.50;86.80;;;;;;5075576;28;20029;-78
2023/07/12 08:03:18;;;;;;;6.53;3.40;;;19.60;87.10;;;;;;5093689;28;20020;-78
2023/07/12 08:05:43;;;;;;;7.18;3.35;;;19.60;86.40;;;;;;5075688;28;20050;-77
2023/07/12 08:08:09;;;;;;;14.50;4.03;;;19.50;86.70;;;;;;5075534;28;20029;-77
2023/07/12 08:10:35;;;;;;;6.18;3.53;;;19.50;86.40;;;;;;5093486;28;20076;-77
2023/07/12 08:13:01;;;;;;;8.95;3.80;;;19.60;86.50;;;;;;5092565;28;20024;-77
2023/07/12 08:15:27;;;;;;;9.75;4.00;;;19.60;86.10;;;;;;5092587;28;20035;-79
2023/07/12 08:17:53;;;;;;;7.63;3.80;;;19.80;85.50;;;;;;5075669;28;20020;-78
2023/07/12 08:20:20;;;;;;;6.07;3.55;;;19.80;85.60;;;;;;5093286;28;20028;-80
2023/07/12 08:22:47;;;;;;;10.20;3.90;;;19.90;86.20;;;;;;5093296;28;20058;-81
2023/07/12 08:25:13;;;;;;;7.45;3.72;;;19.90;85.00;;;;;;5092280;28;20017;-79
2023/07/12 08:27:39;;;;;;;6.63;3.15;;;19.90;85.10;;;;;;5092227;28;20020;-78
2023/07/12 08:30:06;;;;;;;6.13;3.60;;;20.00;84.90;;;;;;5093227;28;20051;-79
2023/07/12 08:32:33;;;;;;;6.97;3.42;;;20.10;84.80;;;;;;5092316;28;20028;-80
2023/07/12 08:35:00;;;;;;;6.53;3.45;;;20.10;84.90;;;;;;5092131;28;20020;-77
2023/07/12 08:37:26;;;;;;;5.43;3.42;;;20.10;84.40;;;;;;5092215;28;20028;-78
2023/07/12 08:39:52;;;;;;;6.65;3.63;;;20.20;82.80;;;;;;5092116;28;20024;-76
2023/07/12 08:42:22;;;;;;;8.95;3.72;;;20.20;83.10;;;;;;5092946;28;20044;-78
2023/07/12 08:44:48;;;;;;;8.68;3.58;;;20.20;81.90;;;;;;5092194;28;20029;-77
2023/07/12 08:47:19;;;;;;;9.25;3.58;;;20.20;82.50;;;;;;5092142;28;20052;-78
2023/07/12 08:49:45;;;;;;;7.13;3.20;;;20.10;81.90;;;;;;5093083;28;20050;-77
2023/07/12 08:52:22;;;;;;;8.07;3.50;;;20.10;82.40;;;;;;5092128;28;20024;-76
2023/07/12 08:54:48;;;;;;;9.02;3.72;;;20.20;82.50;;;;;;5092971;28;20040;-77
2023/07/12 08:57:27;;;;;;;6.63;3.15;;;20.10;82.80;;;;;;5092951;28;20035;-75
2023/07/12 09:00:17;;;;;;;6.38;3.42;;;20.10;83.50;;;;;;5092093;28;20036;-76
2023/07/12 09:02:42;;;;;;;13.05;4.00;;;20.10;83.50;;;;;;5093000;28;20028;-76
2023/07/12 09:05:17;;;;;;;7.40;3.30;;;20.10;84.10;;;;;;5091806;28;20039;-76
2023/07/12 09:07:59;;;;;;;8.32;3.70;;;20.20;84.00;;;;;;5091922;28;20021;-77
2023/07/12 09:10:33;;;;;;;8.02;4.07;;;20.30;84.60;;;;;;5091800;28;20040;-76
2023/07/12 09:12:59;;;;;;;10.05;4.22;;;20.40;82.50;;;;;;5095284;28;20027;-77
2023/07/12 09:15:33;;;;;;;7.75;4.75;;;20.40;81.40;;;;;;5097018;28;20039;-76
2023/07/12 09:18:45;;;;;;;10.13;4.78;;;20.40;81.50;;;;;;5097402;28;20020;-76
2023/07/12 09:21:25;;;;;;;11.02;4.72;;;20.50;80.60;;;;;;5092160;28;20051;-75
2023/07/12 09:24:14;;;;;;;8.95;3.88;;;20.40;82.20;;;;;;5095429;28;20059;-76
2023/07/12 09:26:40;;;;;;;7.57;4.50;;;20.50;81.90;;;;;;5095417;28;20017;-77
2023/07/12 09:29:12;;;;;;;9.77;4.32;;;20.50;81.70;;;;;;5096366;28;20025;-76
2023/07/12 09:31:40;;;;;;;10.02;4.13;;;20.50;81.40;;;;;;5096512;28;20020;-73
2023/07/12 09:34:15;;;;;;;5.78;3.47;;;20.70;82.20;;;;;;5096217;28;20039;-74
2023/07/12 09:36:41;;;;;;;9.55;3.85;;;20.90;80.20;;;;;;5095320;28;20024;-74
2023/07/12 09:39:10;;;;;;;5.80;3.67;;;20.90;79.80;;;;;;5096182;28;20031;-74
2023/07/12 09:41:36;;;;;;;8.82;4.35;;;20.90;79.10;;;;;;5094817;28;20108;-75
2023/07/12 09:44:02;;;;;;;23.52;13.50;;;21.00;79.60;;;;;;5095134;28;20029;-74
2023/07/12 09:46:44;;;;;;;143.95;69.93;;;21.10;80.00;;;;;;5096111;28;20032;-74
2023/07/12 09:49:15;;;;;;;8.02;4.00;;;21.10;79.50;;;;;;5096261;28;20028;-75
2023/07/12 09:51:47;;;;;;;7.22;3.60;;;21.10;78.40;;;;;;5095030;28;20020;-74
2023/07/12 09:54:32;;;;;;;5.28;3.53;;;21.20;79.60;;;;;;5095951;28;20382;-73
2023/07/12 09:57:38;;;;;;;5.28;3.33;;;21.20;80.00;;;;;;5095943;28;20418;-74
2023/07/12 10:00:11;;;;;;;7.15;3.40;;;21.30;79.20;;;;;;5094163;28;20033;-75
2023/07/12 10:03:00;;;;;;;6.82;3.08;;;21.30;75.80;;;;;;5094797;28;20048;-75
2023/07/12 10:05:26;;;;;;;8.85;3.40;;;21.40;76.80;;;;;;5094723;28;20028;-75
2023/07/12 10:08:05;;;;;;;7.32;3.22;;;21.50;77.40;;;;;;5095722;28;20021;-76
2023/07/12 10:10:52;;;;;;;8.85;3.72;;;21.70;76.70;;;;;;5095679;28;20025;-75
2023/07/12 10:13:33;;;;;;;7.82;3.95;;;21.80;75.60;;;;;;5094608;28;20056;-74
2023/07/12 10:16:00;;;;;;;12.15;4.10;;;21.90;75.00;;;;;;5095509;28;20028;-76
2023/07/12 10:18:30;;;;;;;8.50;4.05;;;22.10;75.90;;;;;;5094442;28;20013;-76
2023/07/12 10:20:56;;;;;;;7.78;3.60;;;22.20;75.40;;;;;;5095471;28;20089;-76
2023/07/12 10:23:30;;;;;;;6.18;3.70;;;22.00;74.80;;;;;;5094005;28;20051;-77
2023/07/12 10:25:59;;;;;;;10.70;4.28;;;22.10;75.40;;;;;;5095312;28;20025;-77
2023/07/12 10:28:40;;;;;;;5.63;3.58;;;22.20;73.90;;;;;;5094369;28;20021;-76
2023/07/12 10:31:25;;;;;;;7.80;4.10;;;22.30;75.00;;;;;;5094243;28;20052;-78
2023/07/12 10:33:54;;;;;;;8.63;4.38;;;22.30;71.70;;;;;;5095168;28;20080;-76
2023/07/12 10:36:24;;;;;;;7.63;4.47;;;22.30;71.50;;;;;;5094260;28;20024;-77
2023/07/12 10:38:51;;;;;;;7.10;4.07;;;22.20;71.60;;;;;;5094184;28;20016;-77
2023/07/12 10:41:20;;;;;;;8.43;3.92;;;22.20;74.40;;;;;;5094014;28;20384;-77
2023/07/12 10:43:50;;;;;;;5.18;3.60;;;22.40;75.10;;;;;;5094993;28;20051;-76
2023/07/12 10:46:32;;;;;;;6.28;3.75;;;22.50;72.40;;;;;;5094038;28;20088;-78
2023/07/12 10:48:58;;;;;;;;;;;22.50;71.40;;;;;;5094351;28;20023;-76
2023/07/12 10:51:27;;;;;;;7.05;3.65;;;22.40;70.90;;;;;;5094908;28;19913;-77
2023/07/12 10:53:55;;;;;;;4.80;2.92;;;22.50;71.30;;;;;;5094886;28;20032;-77
2023/07/12 10:56:32;;;;;;;7.07;3.05;;;22.60;71.10;;;;;;5093900;28;20032;-76
2023/07/12 10:59:04;;;;;;;4.25;3.00;;;22.50;69.50;;;;;;5093747;28;20058;-77
2023/07/12 11:01:41;;;;;;;5.63;3.00;;;22.50;72.00;;;;;;5094724;28;20080;-77
2023/07/12 11:04:13;;;;;;;4.50;2.80;;;22.60;71.50;;;;;;5094624;28;20056;-77
2023/07/12 11:07:03;;;;;;;7.55;2.80;;;22.70;71.10;;;;;;5093559;28;20021;-76
2023/07/12 11:09:47;;;;;;;9.88;2.70;;;22.80;70.30;;;;;;5094638;28;20076;-77
2023/07/12 11:12:31;;;;;;;5.82;2.50;;;22.80;70.20;;;;;;5093683;28;20020;-77
2023/07/12 11:15:05;;;;;;;5.97;2.70;;;22.80;69.90;;;;;;5094408;28;20055;-76
2023/07/12 11:17:49;;;;;;;4.10;2.47;;;22.80;70.50;;;;;;5094406;28;20031;-77
2023/07/12 11:20:32;;;;;;;6.18;3.10;;;22.80;69.60;;;;;;5093291;28;20032;-76
2023/07/12 11:23:07;;;;;;;5.20;2.83;;;22.70;69.90;;;;;;5093279;28;20021;-77
2023/07/12 11:25:47;;;;;;;5.43;2.20;;;22.70;70.30;;;;;;5093144;28;20029;-77
2023/07/12 11:28:25;;;;;;;3.15;2.60;;;22.80;69.10;;;;;;5094218;28;20080;-77
2023/07/12 11:31:12;;;;;;;3.65;2.15;;;22.80;69.90;;;;;;5094090;28;20029;-76
2023/07/12 11:33:41;;;;;;;6.32;2.20;;;22.60;67.90;;;;;;5093547;28;20024;-77
2023/07/12 11:36:09;;;;;;;5.53;2.60;;;22.60;70.20;;;;;;5092982;28;20020;-77
2023/07/12 11:38:36;;;;;;;6.15;2.25;;;22.80;70.30;;;;;;5092990;28;20032;-76
2023/07/12 11:41:13;;;;;;;5.53;2.20;;;22.90;70.20;;;;;;5076117;28;20016;-77
2023/07/12 11:43:40;;;;;;;5.07;2.45;;;23.10;70.80;;;;;;5093957;28;20031;-77
2023/07/12 11:46:23;;;;;;;6.22;2.25;;;23.20;68.10;;;;;;5093024;28;20020;-76
2023/07/12 11:48:51;;;;;;;4.43;2.13;;;23.30;71.10;;;;;;5093790;28;20028;-77
2023/07/12 11:51:20;;;;;;;4.20;2.25;;;23.40;68.00;;;;;;5092743;28;20013;-76
2023/07/12 11:53:56;;;;;;;6.88;2.92;;;23.40;69.80;;;;;;5093701;28;20020;-77
2023/07/12 11:56:21;;;;;;;3.70;2.03;;;23.40;68.20;;;;;;5093665;28;20076;-77
2023/07/12 11:58:47;;;;;;;3.30;2.20;;;23.40;68.40;;;;;;5093642;28;20028;-77
2023/07/12 12:01:18;;;;;;;5.63;2.28;;;23.50;70.30;;;;;;5092656;28;20017;-76
2023/07/12 12:03:48;;;;;;;5.00;1.95;;;23.50;69.10;;;;;;5075899;28;20190;-76
2023/07/12 12:06:14;;;;;;;4.70;2.03;;;23.30;66.40;;;;;;5092551;28;20078;-77
2023/07/12 12:08:47;;;;;;;6.15;2.22;;;23.20;66.00;;;;;;5093464;28;20031;-77
2023/07/12 12:11:13;;;;;;;4.35;2.00;;;23.20;68.30;;;;;;5092460;28;20107;-76
2023/07/12 12:13:48;;;;;;;6.07;2.40;;;23.10;67.10;;;;;;5093432;28;20017;-77
2023/07/12 12:16:30;;;;;;;5.05;2.38;;;23.00;66.30;;;;;;5092421;28;20028;-76
2023/07/12 12:19:14;;;;;;;3.55;2.35;;;23.00;67.40;;;;;;5093432;28;20020;-77
2023/07/12 12:21:48;;;;;;;8.95;3.70;;;23.20;68.00;;;;;;5093381;28;20017;-76
2023/07/12 12:24:20;;;;;;;9.50;3.78;;;23.20;68.30;;;;;;5092250;28;20028;-76
2023/07/12 12:26:49;;;;;;;10.35;3.88;;;23.10;68.30;;;;;;5093461;28;20108;-77
2023/07/12 12:29:23;;;;;;;8.70;3.65;;;23.20;68.70;;;;;;5092306;28;20024;-77
2023/07/12 12:31:53;;;;;;;7.22;3.80;;;23.30;68.80;;;;;;5092371;28;20120;-77
2023/07/12 12:34:20;;;;;;;6.63;3.55;;;23.50;68.90;;;;;;5093324;28;20489;-77
2023/07/12 12:36:59;;;;;;;6.28;3.63;;;23.60;68.40;;;;;;5093220;28;20020;-76
2023/07/12 12:39:26;;;;;;;7.15;3.53;;;23.70;67.70;;;;;;5093154;28;20033;-78
2023/07/12 12:41:58;;;;;;;5.28;3.80;;;23.60;66.90;;;;;;5091947;28;20094;-77
2023/07/12 12:44:29;;;;;;;8.68;3.60;;;23.50;66.50;;;;;;5093047;28;20080;-78
2023/07/12 12:46:56;;;;;;;13.05;3.83;;;23.50;66.80;;;;;;5096751;28;20029;-78
2023/07/12 12:49:31;;;;;;;7.07;3.47;;;23.40;67.10;;;;;;5079626;28;20047;-77
2023/07/12 12:52:08;;;;;;;7.60;3.92;;;23.40;67.30;;;;;;5097056;28;20070;-78
2023/07/12 12:54:34;;;;;;;8.23;4.00;;;23.30;68.60;;;;;;5097160;28;20055;-79
2023/07/12 12:57:00;;;;;;;7.75;4.00;;;23.20;69.30;;;;;;5096138;28;20025;-77